Terminal Aerodrome Forecast
Issued by NWS Blacksburg, VA

Home | Current Version | Previous Version | Text Only | Print | Product List | Glossary On
Versions: 1 2 3 4 5 6 7 8 9 10 11 12 13 14 15 16 17 18 19 20 21 22 23 24 25 26 27 28 29 30 31
000
FTUS41 KRNK 271730
TAFLYH
TAF
KLYH 271730Z 2718/2818 21010KT P6SM SCT040 BKN250
      TEMPO 2719/2721 -SHRA BKN040
     FM272200 21007KT P6SM SCT050 BKN080
     FM280000 19003KT P6SM SCT120 BKN250
     FM280800 00000KT 4SM BR SCT008 BKN250
     FM281300 12005KT P6SM SCT050=

USA.gov is the U.S. government's official web portal to all federal, state and local government web resources and services.